sensor_id;sensor_type;location;lat;lon;timestamp;P1;durP1;ratioP1;P2;durP2;ratioP2
1785;SDS011;890;48.158;11.540;2023-07-31T00:01:59;3.70;;;2.03;;
1785;SDS011;890;48.158;11.540;2023-07-31T00:04:25;4.53;;;2.40;;
1785;SDS011;890;48.158;11.540;2023-07-31T00:06:51;2.37;;;2.17;;
1785;SDS011;890;48.158;11.540;2023-07-31T00:09:16;4.33;;;2.60;;
1785;SDS011;890;48.158;11.540;2023-07-31T00:11:42;4.03;;;2.57;;
1785;SDS011;890;48.158;11.540;2023-07-31T00:14:07;2.60;;;2.27;;
1785;SDS011;890;48.158;11.540;2023-07-31T00:16:33;2.60;;;2.10;;
1785;SDS011;890;48.158;11.540;2023-07-31T00:18:58;2.67;;;2.07;;
1785;SDS011;890;48.158;11.540;2023-07-31T00:21:24;6.13;;;2.70;;
1785;SDS011;890;48.158;11.540;2023-07-31T00:23:49;3.30;;;2.37;;
1785;SDS011;890;48.158;11.540;2023-07-31T00:26:15;4.10;;;2.03;;
1785;SDS011;890;48.158;11.540;2023-07-31T00:28:41;5.40;;;2.93;;
1785;SDS011;890;48.158;11.540;2023-07-31T00:31:06;6.33;;;2.70;;
1785;SDS011;890;48.158;11.540;2023-07-31T00:33:34;3.23;;;2.33;;
1785;SDS011;890;48.158;11.540;2023-07-31T00:36:00;8.73;;;3.20;;
1785;SDS011;890;48.158;11.540;2023-07-31T00:38:25;129.57;;;123.17;;
1785;SDS011;890;48.158;11.540;2023-07-31T00:40:51;180.00;;;170.83;;
1785;SDS011;890;48.158;11.540;2023-07-31T00:43:16;331.90;;;314.83;;
1785;SDS011;890;48.158;11.540;2023-07-31T00:45:42;396.07;;;376.63;;
1785;SDS011;890;48.158;11.540;2023-07-31T00:48:07;1035.43;;;977.80;;
1785;SDS011;890;48.158;11.540;2023-07-31T00:50:33;242.13;;;229.93;;
1785;SDS011;890;48.158;11.540;2023-07-31T00:53:00;9.83;;;7.23;;
1785;SDS011;890;48.158;11.540;2023-07-31T00:55:25;46.37;;;43.93;;
1785;SDS011;890;48.158;11.540;2023-07-31T00:57:51;8.17;;;2.23;;
1785;SDS011;890;48.158;11.540;2023-07-31T01:00:20;6.73;;;2.80;;
1785;SDS011;890;48.158;11.540;2023-07-31T01:02:46;41.87;;;39.23;;
1785;SDS011;890;48.158;11.540;2023-07-31T01:05:13;160.93;;;153.10;;
1785;SDS011;890;48.158;11.540;2023-07-31T01:10:23;88.10;;;83.70;;
1785;SDS011;890;48.158;11.540;2023-07-31T01:12:55;8.07;;;3.37;;
1785;SDS011;890;48.158;11.540;2023-07-31T01:15:22;5.00;;;2.83;;
1785;SDS011;890;48.158;11.540;2023-07-31T01:17:48;9.20;;;8.60;;
1785;SDS011;890;48.158;11.540;2023-07-31T01:20:21;259.40;;;247.90;;
1785;SDS011;890;48.158;11.540;2023-07-31T01:22:54;634.43;;;603.77;;
1785;SDS011;890;48.158;11.540;2023-07-31T01:25:47;527.50;;;502.60;;
1785;SDS011;890;48.158;11.540;2023-07-31T01:31:30;1040.00;;;984.47;;
1785;SDS011;890;48.158;11.540;2023-07-31T01:33:59;1038.50;;;984.60;;
1785;SDS011;890;48.158;11.540;2023-07-31T01:36:26;973.90;;;917.40;;
1785;SDS011;890;48.158;11.540;2023-07-31T01:38:57;1042.17;;;979.07;;
1785;SDS011;890;48.158;11.540;2023-07-31T01:41:24;1014.50;;;954.13;;
1785;SDS011;890;48.158;11.540;2023-07-31T01:43:49;1057.73;;;992.80;;
1785;SDS011;890;48.158;11.540;2023-07-31T01:46:15;1033.33;;;970.43;;
1785;SDS011;890;48.158;11.540;2023-07-31T01:48:40;1053.50;;;988.33;;
1785;SDS011;890;48.158;11.540;2023-07-31T01:51:06;1039.07;;;975.83;;
1785;SDS011;890;48.158;11.540;2023-07-31T01:53:32;1064.23;;;996.33;;
1785;SDS011;890;48.158;11.540;2023-07-31T01:55:57;1037.80;;;974.93;;
1785;SDS011;890;48.158;11.540;2023-07-31T01:58:23;1039.87;;;977.50;;
1785;SDS011;890;48.158;11.540;2023-07-31T02:00:49;1046.27;;;982.57;;
1785;SDS011;890;48.158;11.540;2023-07-31T02:03:14;997.10;;;948.03;;
1785;SDS011;890;48.158;11.540;2023-07-31T02:05:44;375.53;;;358.40;;
1785;SDS011;890;48.158;11.540;2023-07-31T02:08:10;488.07;;;465.73;;
1785;SDS011;890;48.158;11.540;2023-07-31T02:10:36;708.73;;;675.10;;
1785;SDS011;890;48.158;11.540;2023-07-31T02:13:02;997.87;;;943.73;;
1785;SDS011;890;48.158;11.540;2023-07-31T02:15:29;1062.87;;;996.83;;
1785;SDS011;890;48.158;11.540;2023-07-31T02:17:55;1021.73;;;960.83;;
1785;SDS011;890;48.158;11.540;2023-07-31T02:20:20;989.07;;;929.87;;
1785;SDS011;890;48.158;11.540;2023-07-31T02:22:46;1004.17;;;946.27;;
1785;SDS011;890;48.158;11.540;2023-07-31T02:25:11;1076.17;;;999.90;;
1785;SDS011;890;48.158;11.540;2023-07-31T02:27:37;1033.33;;;971.20;;
1785;SDS011;890;48.158;11.540;2023-07-31T02:30:03;1051.03;;;987.77;;
1785;SDS011;890;48.158;11.540;2023-07-31T02:32:28;1073.63;;;999.90;;
1785;SDS011;890;48.158;11.540;2023-07-31T02:34:54;1051.97;;;989.50;;
1785;SDS011;890;48.158;11.540;2023-07-31T02:37:20;973.27;;;915.40;;
1785;SDS011;890;48.158;11.540;2023-07-31T02:39:45;971.10;;;914.13;;
1785;SDS011;890;48.158;11.540;2023-07-31T02:42:11;623.97;;;587.33;;
1785;SDS011;890;48.158;11.540;2023-07-31T02:44:37;922.60;;;870.23;;
1785;SDS011;890;48.158;11.540;2023-07-31T02:47:03;1010.50;;;949.17;;
1785;SDS011;890;48.158;11.540;2023-07-31T02:49:28;1060.73;;;996.30;;
1785;SDS011;890;48.158;11.540;2023-07-31T02:51:54;1046.27;;;983.20;;
1785;SDS011;890;48.158;11.540;2023-07-31T02:54:20;1019.70;;;959.03;;
1785;SDS011;890;48.158;11.540;2023-07-31T02:56:46;974.37;;;915.40;;
1785;SDS011;890;48.158;11.540;2023-07-31T02:59:12;1018.00;;;956.60;;
1785;SDS011;890;48.158;11.540;2023-07-31T03:01:38;1015.83;;;954.67;;
1785;SDS011;890;48.158;11.540;2023-07-31T03:04:04;1029.73;;;967.93;;
1785;SDS011;890;48.158;11.540;2023-07-31T03:06:29;1022.90;;;961.40;;
1785;SDS011;890;48.158;11.540;2023-07-31T03:08:55;992.10;;;932.13;;
1785;SDS011;890;48.158;11.540;2023-07-31T03:11:20;1031.90;;;969.03;;
1785;SDS011;890;48.158;11.540;2023-07-31T03:13:46;1054.77;;;987.97;;
1785;SDS011;890;48.158;11.540;2023-07-31T03:16:12;1033.53;;;969.90;;
1785;SDS011;890;48.158;11.540;2023-07-31T03:18:37;993.23;;;933.53;;
1785;SDS011;890;48.158;11.540;2023-07-31T03:21:03;939.53;;;883.77;;
1785;SDS011;890;48.158;11.540;2023-07-31T03:23:29;962.03;;;904.53;;
1785;SDS011;890;48.158;11.540;2023-07-31T03:25:59;946.17;;;890.20;;
1785;SDS011;890;48.158;11.540;2023-07-31T03:28:28;981.47;;;921.13;;
1785;SDS011;890;48.158;11.540;2023-07-31T03:30:53;1020.67;;;963.17;;
1785;SDS011;890;48.158;11.540;2023-07-31T03:33:19;1020.40;;;959.07;;
1785;SDS011;890;48.158;11.540;2023-07-31T03:35:45;1032.70;;;970.07;;
1785;SDS011;890;48.158;11.540;2023-07-31T03:38:10;1029.53;;;968.00;;
1785;SDS011;890;48.158;11.540;2023-07-31T03:40:36;982.17;;;923.33;;
1785;SDS011;890;48.158;11.540;2023-07-31T03:43:02;993.67;;;933.77;;
1785;SDS011;890;48.158;11.540;2023-07-31T03:45:27;999.27;;;938.97;;
1785;SDS011;890;48.158;11.540;2023-07-31T03:47:53;991.13;;;931.67;;
1785;SDS011;890;48.158;11.540;2023-07-31T03:50:19;1019.70;;;958.20;;
1785;SDS011;890;48.158;11.540;2023-07-31T03:52:45;1033.27;;;971.17;;
1785;SDS011;890;48.158;11.540;2023-07-31T03:55:11;989.93;;;930.17;;
1785;SDS011;890;48.158;11.540;2023-07-31T03:57:36;1009.30;;;948.23;;
1785;SDS011;890;48.158;11.540;2023-07-31T04:00:02;996.83;;;937.50;;
1785;SDS011;890;48.158;11.540;2023-07-31T04:02:28;998.87;;;939.20;;
1785;SDS011;890;48.158;11.540;2023-07-31T04:04:54;1021.27;;;960.20;;
1785;SDS011;890;48.158;11.540;2023-07-31T04:07:19;990.67;;;931.30;;
1785;SDS011;890;48.158;11.540;2023-07-31T04:09:45;965.93;;;908.17;;
1785;SDS011;890;48.158;11.540;2023-07-31T04:12:11;1046.00;;;978.60;;
1785;SDS011;890;48.158;11.540;2023-07-31T04:14:36;1065.10;;;992.97;;
1785;SDS011;890;48.158;11.540;2023-07-31T04:17:02;1041.53;;;975.87;;
1785;SDS011;890;48.158;11.540;2023-07-31T04:19:28;1105.83;;;999.90;;
1785;SDS011;890;48.158;11.540;2023-07-31T04:21:53;1131.53;;;999.90;;
1785;SDS011;890;48.158;11.540;2023-07-31T04:24:19;1115.37;;;999.90;;
1785;SDS011;890;48.158;11.540;2023-07-31T04:26:49;846.90;;;799.37;;
1785;SDS011;890;48.158;11.540;2023-07-31T04:29:15;884.60;;;834.33;;
1785;SDS011;890;48.158;11.540;2023-07-31T04:31:41;475.77;;;450.60;;
1785;SDS011;890;48.158;11.540;2023-07-31T04:34:07;356.90;;;337.57;;
1785;SDS011;890;48.158;11.540;2023-07-31T04:36:33;600.53;;;566.97;;
1785;SDS011;890;48.158;11.540;2023-07-31T04:38:59;973.23;;;914.93;;
1785;SDS011;890;48.158;11.540;2023-07-31T04:41:25;391.53;;;370.40;;
1785;SDS011;890;48.158;11.540;2023-07-31T04:43:50;601.93;;;568.97;;
1785;SDS011;890;48.158;11.540;2023-07-31T04:46:16;619.50;;;585.37;;
1785;SDS011;890;48.158;11.540;2023-07-31T04:48:42;838.83;;;792.13;;
1785;SDS011;890;48.158;11.540;2023-07-31T04:51:08;520.53;;;489.27;;
1785;SDS011;890;48.158;11.540;2023-07-31T04:53:34;7.77;;;7.07;;
1785;SDS011;890;48.158;11.540;2023-07-31T04:56:00;984.07;;;923.37;;
1785;SDS011;890;48.158;11.540;2023-07-31T04:58:26;1024.07;;;957.00;;
1785;SDS011;890;48.158;11.540;2023-07-31T05:00:51;683.37;;;641.63;;
1785;SDS011;890;48.158;11.540;2023-07-31T05:03:17;1114.67;;;999.90;;
1785;SDS011;890;48.158;11.540;2023-07-31T05:05:42;1050.57;;;990.70;;
1785;SDS011;890;48.158;11.540;2023-07-31T05:08:08;923.93;;;875.63;;
1785;SDS011;890;48.158;11.540;2023-07-31T05:10:34;620.43;;;588.47;;
1785;SDS011;890;48.158;11.540;2023-07-31T05:12:59;127.37;;;119.90;;
1785;SDS011;890;48.158;11.540;2023-07-31T05:15:25;462.33;;;437.87;;
1785;SDS011;890;48.158;11.540;2023-07-31T05:17:51;376.30;;;355.53;;
1785;SDS011;890;48.158;11.540;2023-07-31T05:20:16;25.07;;;23.20;;
1785;SDS011;890;48.158;11.540;2023-07-31T05:22:42;9.30;;;3.27;;
1785;SDS011;890;48.158;11.540;2023-07-31T05:25:07;6.40;;;3.30;;
1785;SDS011;890;48.158;11.540;2023-07-31T05:27:33;285.10;;;269.60;;
1785;SDS011;890;48.158;11.540;2023-07-31T05:29:59;35.80;;;33.10;;
1785;SDS011;890;48.158;11.540;2023-07-31T05:32:24;6.60;;;3.30;;
1785;SDS011;890;48.158;11.540;2023-07-31T05:34:51;7.60;;;3.67;;
1785;SDS011;890;48.158;11.540;2023-07-31T05:37:17;4.03;;;3.10;;
1785;SDS011;890;48.158;11.540;2023-07-31T05:39:43;5.97;;;3.33;;
1785;SDS011;890;48.158;11.540;2023-07-31T05:42:08;114.07;;;107.37;;
1785;SDS011;890;48.158;11.540;2023-07-31T05:44:34;284.33;;;270.07;;
1785;SDS011;890;48.158;11.540;2023-07-31T05:47:00;4.47;;;3.10;;
1785;SDS011;890;48.158;11.540;2023-07-31T05:49:25;3.17;;;2.77;;
1785;SDS011;890;48.158;11.540;2023-07-31T05:51:51;8.00;;;3.33;;
1785;SDS011;890;48.158;11.540;2023-07-31T05:54:16;5.07;;;3.53;;
1785;SDS011;890;48.158;11.540;2023-07-31T05:56:42;4.40;;;2.87;;
1785;SDS011;890;48.158;11.540;2023-07-31T05:59:08;4.80;;;2.37;;
1785;SDS011;890;48.158;11.540;2023-07-31T06:01:35;3.70;;;2.40;;
1785;SDS011;890;48.158;11.540;2023-07-31T06:04:01;5.57;;;2.20;;
1785;SDS011;890;48.158;11.540;2023-07-31T06:06:28;2.57;;;2.37;;
1785;SDS011;890;48.158;11.540;2023-07-31T06:08:54;2.47;;;2.20;;
1785;SDS011;890;48.158;11.540;2023-07-31T06:11:22;4.07;;;2.60;;
1785;SDS011;890;48.158;11.540;2023-07-31T06:13:48;2.70;;;2.13;;
1785;SDS011;890;48.158;11.540;2023-07-31T06:16:15;3.77;;;2.50;;
1785;SDS011;890;48.158;11.540;2023-07-31T06:18:42;4.53;;;2.20;;
1785;SDS011;890;48.158;11.540;2023-07-31T06:21:07;2.87;;;2.20;;
1785;SDS011;890;48.158;11.540;2023-07-31T06:23:34;2.80;;;2.07;;
1785;SDS011;890;48.158;11.540;2023-07-31T06:25:59;2.27;;;2.07;;
1785;SDS011;890;48.158;11.540;2023-07-31T06:28:28;4.47;;;2.10;;
1785;SDS011;890;48.158;11.540;2023-07-31T06:30:55;2.50;;;2.00;;
1785;SDS011;890;48.158;11.540;2023-07-31T06:33:21;5.93;;;2.47;;
1785;SDS011;890;48.158;11.540;2023-07-31T06:35:46;3.70;;;1.87;;
1785;SDS011;890;48.158;11.540;2023-07-31T06:38:12;4.13;;;2.50;;
1785;SDS011;890;48.158;11.540;2023-07-31T06:40:38;2.33;;;2.07;;
1785;SDS011;890;48.158;11.540;2023-07-31T06:43:03;2.93;;;1.90;;
1785;SDS011;890;48.158;11.540;2023-07-31T06:45:35;2.80;;;2.03;;
1785;SDS011;890;48.158;11.540;2023-07-31T06:48:02;5.93;;;2.40;;
1785;SDS011;890;48.158;11.540;2023-07-31T06:50:29;3.10;;;2.17;;
1785;SDS011;890;48.158;11.540;2023-07-31T06:52:55;3.00;;;2.10;;
1785;SDS011;890;48.158;11.540;2023-07-31T06:55:21;3.43;;;2.20;;
1785;SDS011;890;48.158;11.540;2023-07-31T06:57:48;2.70;;;2.00;;
1785;SDS011;890;48.158;11.540;2023-07-31T07:00:14;3.40;;;2.33;;
1785;SDS011;890;48.158;11.540;2023-07-31T07:02:41;3.70;;;2.10;;
1785;SDS011;890;48.158;11.540;2023-07-31T07:05:07;4.23;;;2.10;;
1785;SDS011;890;48.158;11.540;2023-07-31T07:07:33;2.90;;;1.90;;
1785;SDS011;890;48.158;11.540;2023-07-31T07:09:59;3.30;;;2.50;;
1785;SDS011;890;48.158;11.540;2023-07-31T07:12:25;5.93;;;2.27;;
1785;SDS011;890;48.158;11.540;2023-07-31T07:14:52;3.60;;;2.20;;
1785;SDS011;890;48.158;11.540;2023-07-31T07:17:18;3.00;;;2.10;;
1785;SDS011;890;48.158;11.540;2023-07-31T07:19:44;2.17;;;1.97;;
1785;SDS011;890;48.158;11.540;2023-07-31T07:22:10;3.10;;;2.10;;
1785;SDS011;890;48.158;11.540;2023-07-31T07:24:36;3.03;;;2.17;;
1785;SDS011;890;48.158;11.540;2023-07-31T07:27:02;4.40;;;2.23;;
1785;SDS011;890;48.158;11.540;2023-07-31T07:29:28;2.30;;;2.00;;
1785;SDS011;890;48.158;11.540;2023-07-31T07:31:54;4.57;;;2.73;;
1785;SDS011;890;48.158;11.540;2023-07-31T07:34:19;4.63;;;2.27;;
1785;SDS011;890;48.158;11.540;2023-07-31T07:36:47;3.60;;;2.67;;
1785;SDS011;890;48.158;11.540;2023-07-31T07:39:13;3.37;;;2.23;;
1785;SDS011;890;48.158;11.540;2023-07-31T07:41:39;2.93;;;2.50;;
1785;SDS011;890;48.158;11.540;2023-07-31T07:44:05;3.67;;;2.30;;
1785;SDS011;890;48.158;11.540;2023-07-31T07:46:30;2.53;;;2.20;;
1785;SDS011;890;48.158;11.540;2023-07-31T07:48:56;3.10;;;2.40;;
1785;SDS011;890;48.158;11.540;2023-07-31T07:51:22;7.47;;;2.40;;
1785;SDS011;890;48.158;11.540;2023-07-31T07:53:47;3.33;;;2.20;;
1785;SDS011;890;48.158;11.540;2023-07-31T07:56:13;3.50;;;2.23;;
1785;SDS011;890;48.158;11.540;2023-07-31T07:58:38;2.37;;;2.17;;
1785;SDS011;890;48.158;11.540;2023-07-31T08:01:04;2.50;;;2.07;;
1785;SDS011;890;48.158;11.540;2023-07-31T08:03:29;3.70;;;2.30;;
1785;SDS011;890;48.158;11.540;2023-07-31T08:05:58;3.03;;;2.53;;
1785;SDS011;890;48.158;11.540;2023-07-31T08:08:24;3.13;;;2.30;;
1785;SDS011;890;48.158;11.540;2023-07-31T08:10:50;2.80;;;2.10;;
1785;SDS011;890;48.158;11.540;2023-07-31T08:13:16;4.27;;;2.70;;
1785;SDS011;890;48.158;11.540;2023-07-31T08:15:41;5.37;;;2.63;;
1785;SDS011;890;48.158;11.540;2023-07-31T08:18:07;5.37;;;2.10;;
1785;SDS011;890;48.158;11.540;2023-07-31T08:20:33;2.77;;;2.57;;
1785;SDS011;890;48.158;11.540;2023-07-31T08:22:59;2.90;;;2.20;;
1785;SDS011;890;48.158;11.540;2023-07-31T08:25:24;3.80;;;3.07;;
1785;SDS011;890;48.158;11.540;2023-07-31T08:27:50;4.40;;;2.10;;
1785;SDS011;890;48.158;11.540;2023-07-31T08:30:17;2.93;;;2.07;;
1785;SDS011;890;48.158;11.540;2023-07-31T08:32:44;4.03;;;2.47;;
1785;SDS011;890;48.158;11.540;2023-07-31T08:35:09;5.03;;;2.30;;
1785;SDS011;890;48.158;11.540;2023-07-31T08:37:35;3.50;;;2.37;;
1785;SDS011;890;48.158;11.540;2023-07-31T08:40:03;2.90;;;2.07;;
1785;SDS011;890;48.158;11.540;2023-07-31T08:42:29;5.03;;;2.10;;
1785;SDS011;890;48.158;11.540;2023-07-31T08:44:55;8.00;;;2.17;;
1785;SDS011;890;48.158;11.540;2023-07-31T08:47:21;3.03;;;1.80;;
1785;SDS011;890;48.158;11.540;2023-07-31T08:49:48;4.80;;;2.17;;
1785;SDS011;890;48.158;11.540;2023-07-31T08:52:15;2.40;;;1.90;;
1785;SDS011;890;48.158;11.540;2023-07-31T08:54:41;4.70;;;1.97;;
1785;SDS011;890;48.158;11.540;2023-07-31T08:57:06;7.30;;;3.20;;
1785;SDS011;890;48.158;11.540;2023-07-31T08:59:34;2.73;;;2.10;;
1785;SDS011;890;48.158;11.540;2023-07-31T09:02:03;2.83;;;1.90;;
1785;SDS011;890;48.158;11.540;2023-07-31T09:04:32;4.20;;;2.20;;
1785;SDS011;890;48.158;11.540;2023-07-31T09:06:59;3.73;;;2.10;;
1785;SDS011;890;48.158;11.540;2023-07-31T09:09:28;2.40;;;2.20;;
1785;SDS011;890;48.158;11.540;2023-07-31T09:11:54;1.90;;;1.70;;
1785;SDS011;890;48.158;11.540;2023-07-31T09:14:20;2.37;;;1.97;;
1785;SDS011;890;48.158;11.540;2023-07-31T09:16:53;5.87;;;2.30;;
1785;SDS011;890;48.158;11.540;2023-07-31T09:19:31;2.87;;;1.90;;
1785;SDS011;890;48.158;11.540;2023-07-31T09:21:59;2.57;;;2.17;;
1785;SDS011;890;48.158;11.540;2023-07-31T09:24:28;4.80;;;2.07;;
1785;SDS011;890;48.158;11.540;2023-07-31T09:26:55;2.87;;;1.60;;
1785;SDS011;890;48.158;11.540;2023-07-31T09:29:23;3.10;;;2.03;;
1785;SDS011;890;48.158;11.540;2023-07-31T09:31:50;6.07;;;2.20;;
1785;SDS011;890;48.158;11.540;2023-07-31T09:34:16;2.87;;;2.10;;
1785;SDS011;890;48.158;11.540;2023-07-31T09:36:45;3.53;;;2.07;;
1785;SDS011;890;48.158;11.540;2023-07-31T09:39:12;2.97;;;2.00;;
1785;SDS011;890;48.158;11.540;2023-07-31T09:41:42;4.63;;;2.40;;
1785;SDS011;890;48.158;11.540;2023-07-31T09:44:09;2.27;;;2.00;;
1785;SDS011;890;48.158;11.540;2023-07-31T09:46:36;4.03;;;1.90;;
1785;SDS011;890;48.158;11.540;2023-07-31T09:49:12;9.60;;;7.50;;
1785;SDS011;890;48.158;11.540;2023-07-31T09:51:40;3.37;;;2.20;;
1785;SDS011;890;48.158;11.540;2023-07-31T09:54:14;2.73;;;2.00;;
1785;SDS011;890;48.158;11.540;2023-07-31T09:56:44;1.77;;;1.40;;
1785;SDS011;890;48.158;11.540;2023-07-31T09:59:14;2.23;;;1.90;;
1785;SDS011;890;48.158;11.540;2023-07-31T10:01:42;8.73;;;5.67;;
1785;SDS011;890;48.158;11.540;2023-07-31T10:04:09;2.87;;;2.40;;
1785;SDS011;890;48.158;11.540;2023-07-31T10:06:36;5.87;;;2.77;;
1785;SDS011;890;48.158;11.540;2023-07-31T10:09:05;3.20;;;2.10;;
1785;SDS011;890;48.158;11.540;2023-07-31T10:11:41;4.80;;;2.20;;
1785;SDS011;890;48.158;11.540;2023-07-31T10:14:16;3.27;;;2.50;;
1785;SDS011;890;48.158;11.540;2023-07-31T10:16:44;4.00;;;2.00;;
1785;SDS011;890;48.158;11.540;2023-07-31T10:19:10;2.03;;;1.67;;
1785;SDS011;890;48.158;11.540;2023-07-31T10:21:36;5.53;;;2.17;;
1785;SDS011;890;48.158;11.540;2023-07-31T10:24:03;4.27;;;2.07;;
1785;SDS011;890;48.158;11.540;2023-07-31T10:26:31;2.57;;;2.13;;
1785;SDS011;890;48.158;11.540;2023-07-31T10:28:57;3.13;;;2.50;;
1785;SDS011;890;48.158;11.540;2023-07-31T10:31:23;6.43;;;2.50;;
1785;SDS011;890;48.158;11.540;2023-07-31T10:33:50;3.20;;;2.03;;
1785;SDS011;890;48.158;11.540;2023-07-31T10:36:18;4.83;;;2.30;;
1785;SDS011;890;48.158;11.540;2023-07-31T10:38:45;2.20;;;2.00;;
1785;SDS011;890;48.158;11.540;2023-07-31T10:41:13;3.43;;;2.30;;
1785;SDS011;890;48.158;11.540;2023-07-31T10:43:39;3.73;;;2.07;;
1785;SDS011;890;48.158;11.540;2023-07-31T10:46:14;2.70;;;2.20;;
1785;SDS011;890;48.158;11.540;2023-07-31T10:48:40;3.00;;;2.00;;
1785;SDS011;890;48.158;11.540;2023-07-31T10:51:09;2.43;;;2.23;;
1785;SDS011;890;48.158;11.540;2023-07-31T10:53:37;3.60;;;2.27;;
1785;SDS011;890;48.158;11.540;2023-07-31T10:56:08;2.27;;;2.07;;
1785;SDS011;890;48.158;11.540;2023-07-31T10:58:37;4.10;;;2.33;;
1785;SDS011;890;48.158;11.540;2023-07-31T11:01:04;2.00;;;1.80;;
1785;SDS011;890;48.158;11.540;2023-07-31T11:03:49;4.60;;;2.10;;
1785;SDS011;890;48.158;11.540;2023-07-31T11:06:17;3.07;;;2.17;;
1785;SDS011;890;48.158;11.540;2023-07-31T11:11:13;2.90;;;2.07;;
1785;SDS011;890;48.158;11.540;2023-07-31T11:16:05;3.13;;;2.17;;
1785;SDS011;890;48.158;11.540;2023-07-31T11:18:31;6.27;;;2.50;;
1785;SDS011;890;48.158;11.540;2023-07-31T11:20:56;2.97;;;2.40;;
1785;SDS011;890;48.158;11.540;2023-07-31T11:23:22;3.10;;;2.13;;
1785;SDS011;890;48.158;11.540;2023-07-31T11:25:48;14.23;;;2.40;;
1785;SDS011;890;48.158;11.540;2023-07-31T11:28:16;2.30;;;1.90;;
1785;SDS011;890;48.158;11.540;2023-07-31T11:30:43;4.97;;;2.20;;
1785;SDS011;890;48.158;11.540;2023-07-31T11:33:10;2.80;;;2.20;;
1785;SDS011;890;48.158;11.540;2023-07-31T11:35:47;3.87;;;2.20;;
1785;SDS011;890;48.158;11.540;2023-07-31T11:40:54;4.53;;;2.27;;
1785;SDS011;890;48.158;11.540;2023-07-31T11:43:21;4.43;;;2.40;;
1785;SDS011;890;48.158;11.540;2023-07-31T11:45:50;2.37;;;2.17;;
1785;SDS011;890;48.158;11.540;2023-07-31T11:48:18;3.90;;;2.50;;
1785;SDS011;890;48.158;11.540;2023-07-31T11:50:46;2.47;;;1.80;;
1785;SDS011;890;48.158;11.540;2023-07-31T11:53:12;5.80;;;4.60;;
1785;SDS011;890;48.158;11.540;2023-07-31T11:55:38;2.33;;;2.13;;
1785;SDS011;890;48.158;11.540;2023-07-31T11:58:04;3.90;;;2.20;;
1785;SDS011;890;48.158;11.540;2023-07-31T12:00:30;3.30;;;2.00;;
1785;SDS011;890;48.158;11.540;2023-07-31T12:02:56;2.70;;;1.90;;
1785;SDS011;890;48.158;11.540;2023-07-31T12:05:22;2.03;;;1.63;;
1785;SDS011;890;48.158;11.540;2023-07-31T12:07:53;3.13;;;2.27;;
1785;SDS011;890;48.158;11.540;2023-07-31T12:10:37;3.83;;;1.93;;
1785;SDS011;890;48.158;11.540;2023-07-31T12:13:07;2.40;;;1.80;;
1785;SDS011;890;48.158;11.540;2023-07-31T12:15:41;3.47;;;2.00;;
1785;SDS011;890;48.158;11.540;2023-07-31T12:18:10;3.87;;;1.90;;
1785;SDS011;890;48.158;11.540;2023-07-31T12:20:41;2.40;;;2.20;;
1785;SDS011;890;48.158;11.540;2023-07-31T12:23:21;2.67;;;2.07;;
1785;SDS011;890;48.158;11.540;2023-07-31T12:26:10;2.47;;;2.00;;
1785;SDS011;890;48.158;11.540;2023-07-31T12:31:05;3.57;;;2.17;;
1785;SDS011;890;48.158;11.540;2023-07-31T12:33:32;2.43;;;2.17;;
1785;SDS011;890;48.158;11.540;2023-07-31T12:36:03;2.90;;;2.10;;
1785;SDS011;890;48.158;11.540;2023-07-31T12:38:30;2.90;;;2.20;;
1785;SDS011;890;48.158;11.540;2023-07-31T12:40:55;1.83;;;1.70;;
1785;SDS011;890;48.158;11.540;2023-07-31T12:43:21;4.57;;;2.13;;
1785;SDS011;890;48.158;11.540;2023-07-31T12:45:47;2.70;;;2.37;;
1785;SDS011;890;48.158;11.540;2023-07-31T12:48:13;3.20;;;2.10;;
1785;SDS011;890;48.158;11.540;2023-07-31T12:50:38;2.93;;;1.83;;
1785;SDS011;890;48.158;11.540;2023-07-31T12:53:04;6.00;;;2.20;;
1785;SDS011;890;48.158;11.540;2023-07-31T12:55:30;3.20;;;2.07;;
1785;SDS011;890;48.158;11.540;2023-07-31T12:57:56;2.67;;;2.47;;
1785;SDS011;890;48.158;11.540;2023-07-31T13:00:22;2.43;;;2.20;;
1785;SDS011;890;48.158;11.540;2023-07-31T13:02:48;4.17;;;2.50;;
1785;SDS011;890;48.158;11.540;2023-07-31T13:05:14;2.90;;;2.53;;
1785;SDS011;890;48.158;11.540;2023-07-31T13:07:40;4.00;;;2.67;;
1785;SDS011;890;48.158;11.540;2023-07-31T13:10:06;3.77;;;2.23;;
1785;SDS011;890;48.158;11.540;2023-07-31T13:12:32;3.17;;;2.83;;
1785;SDS011;890;48.158;11.540;2023-07-31T13:14:58;2.80;;;2.53;;
1785;SDS011;890;48.158;11.540;2023-07-31T13:17:23;2.40;;;2.00;;
1785;SDS011;890;48.158;11.540;2023-07-31T13:19:49;2.20;;;2.00;;
1785;SDS011;890;48.158;11.540;2023-07-31T13:22:14;3.07;;;2.60;;
1785;SDS011;890;48.158;11.540;2023-07-31T13:24:41;2.13;;;1.90;;
1785;SDS011;890;48.158;11.540;2023-07-31T13:27:06;2.90;;;2.70;;
1785;SDS011;890;48.158;11.540;2023-07-31T13:29:32;2.90;;;2.13;;
1785;SDS011;890;48.158;11.540;2023-07-31T13:31:57;3.43;;;2.30;;
1785;SDS011;890;48.158;11.540;2023-07-31T13:34:23;2.33;;;2.07;;
1785;SDS011;890;48.158;11.540;2023-07-31T13:36:49;2.00;;;1.80;;
1785;SDS011;890;48.158;11.540;2023-07-31T13:39:15;2.40;;;2.20;;
1785;SDS011;890;48.158;11.540;2023-07-31T13:41:42;2.37;;;2.00;;
1785;SDS011;890;48.158;11.540;2023-07-31T13:44:07;3.40;;;1.93;;
1785;SDS011;890;48.158;11.540;2023-07-31T13:46:33;2.03;;;1.87;;
1785;SDS011;890;48.158;11.540;2023-07-31T13:48:59;3.03;;;1.87;;
1785;SDS011;890;48.158;11.540;2023-07-31T13:51:26;2.40;;;2.13;;
1785;SDS011;890;48.158;11.540;2023-07-31T13:53:52;2.63;;;2.10;;
1785;SDS011;890;48.158;11.540;2023-07-31T13:56:18;2.77;;;1.77;;
1785;SDS011;890;48.158;11.540;2023-07-31T13:58:44;2.73;;;2.10;;
1785;SDS011;890;48.158;11.540;2023-07-31T14:01:09;2.30;;;1.87;;
1785;SDS011;890;48.158;11.540;2023-07-31T14:03:35;2.00;;;1.57;;
1785;SDS011;890;48.158;11.540;2023-07-31T14:06:01;1.93;;;1.70;;
1785;SDS011;890;48.158;11.540;2023-07-31T14:08:26;1.90;;;1.60;;
1785;SDS011;890;48.158;11.540;2023-07-31T14:10:52;2.30;;;1.90;;
1785;SDS011;890;48.158;11.540;2023-07-31T14:13:17;2.53;;;1.87;;
1785;SDS011;890;48.158;11.540;2023-07-31T14:15:43;2.00;;;1.67;;
1785;SDS011;890;48.158;11.540;2023-07-31T14:18:09;2.63;;;1.93;;
1785;SDS011;890;48.158;11.540;2023-07-31T14:20:34;2.70;;;2.00;;
1785;SDS011;890;48.158;11.540;2023-07-31T14:23:00;2.73;;;2.10;;
1785;SDS011;890;48.158;11.540;2023-07-31T14:25:27;4.73;;;2.30;;
1785;SDS011;890;48.158;11.540;2023-07-31T14:27:52;2.60;;;2.27;;
1785;SDS011;890;48.158;11.540;2023-07-31T14:30:18;2.10;;;1.90;;
1785;SDS011;890;48.158;11.540;2023-07-31T14:32:44;2.10;;;1.90;;
1785;SDS011;890;48.158;11.540;2023-07-31T14:35:09;2.17;;;1.97;;
1785;SDS011;890;48.158;11.540;2023-07-31T14:37:42;3.70;;;2.63;;
1785;SDS011;890;48.158;11.540;2023-07-31T14:40:09;4.20;;;2.23;;
1785;SDS011;890;48.158;11.540;2023-07-31T14:42:36;2.00;;;1.80;;
1785;SDS011;890;48.158;11.540;2023-07-31T14:45:02;2.30;;;2.10;;
1785;SDS011;890;48.158;11.540;2023-07-31T14:47:29;507.47;;;472.43;;
1785;SDS011;890;48.158;11.540;2023-07-31T14:49:56;4.20;;;2.70;;
1785;SDS011;890;48.158;11.540;2023-07-31T14:52:21;3.50;;;2.80;;
1785;SDS011;890;48.158;11.540;2023-07-31T14:54:47;4.20;;;3.27;;
1785;SDS011;890;48.158;11.540;2023-07-31T14:57:13;3.90;;;2.70;;
1785;SDS011;890;48.158;11.540;2023-07-31T14:59:38;2.80;;;2.27;;
1785;SDS011;890;48.158;11.540;2023-07-31T15:02:04;3.77;;;2.20;;
1785;SDS011;890;48.158;11.540;2023-07-31T15:04:30;3.10;;;2.20;;
1785;SDS011;890;48.158;11.540;2023-07-31T15:06:55;4.50;;;2.50;;
1785;SDS011;890;48.158;11.540;2023-07-31T15:09:21;2.50;;;2.00;;
1785;SDS011;890;48.158;11.540;2023-07-31T15:11:47;8.47;;;5.40;;